Time;durP1;ratioP1;P1;durP2;ratioP2;P2;SDS_P1;SDS_P2;PMS_P1;PMS_P2;Temp;Humidity;BMP_temperature;BMP_pressure;BME280_temperature;BME280_humidity;BME280_pressure;Samples;Min_cycle;Max_cycle;Signal;HPM_P1;HPM_P2
2023/10/09 00:01:52;;;;;;;0.80;0.55;;;;;;;14.65;93.89;101394.06;5030694;28;20055;-67
2023/10/09 00:04:17;;;;;;;1.45;0.90;;;;;;;14.69;93.71;101390.22;5030307;28;20520;-66
2023/10/09 00:06:43;;;;;;;0.57;0.40;;;;;;;14.80;93.49;101385.78;5031707;28;20037;-67
2023/10/09 00:11:57;;;;;;;0.45;0.40;;;;;;;14.73;92.86;101396.50;5028487;28;20511;-67
2023/10/09 00:14:34;;;;;;;1.40;0.63;;;;;;;14.70;92.69;101408.09;5027515;28;20045;-66
2023/10/09 00:17:17;;;;;;;2.22;0.93;;;;;;;14.68;93.10;101406.88;5028008;28;20095;-67
2023/10/09 00:19:54;;;;;;;2.45;0.80;;;;;;;14.59;93.12;101376.53;5032198;28;20026;-67
2023/10/09 00:24:46;;;;;;;0.98;0.60;;;;;;;14.46;93.72;101338.78;5029101;28;20055;-67
2023/10/09 00:27:12;;;;;;;2.33;0.90;;;;;;;14.48;93.96;101328.34;5029059;28;20406;-66
2023/10/09 00:29:45;;;;;;;0.57;0.50;;;;;;;14.54;94.19;101325.34;5045471;28;20496;-67
2023/10/09 00:32:19;;;;;;;0.82;0.60;;;;;;;14.64;93.30;101319.28;5029662;28;20512;-67
2023/10/09 00:34:44;;;;;;;1.85;0.50;;;;;;;14.63;93.67;101312.31;5044675;28;20033;-67
2023/10/09 00:37:22;;;;;;;2.88;0.52;;;;;;;14.66;93.48;101304.22;5025990;28;20048;-67
2023/10/09 00:39:55;;;;;;;0.90;0.63;;;;;;;14.59;93.55;101296.00;5030259;28;20040;-65
2023/10/09 00:42:33;;;;;;;0.88;0.60;;;;;;;14.46;93.78;101300.81;5014938;28;20037;-67
2023/10/09 00:45:09;;;;;;;1.08;0.60;;;;;;;14.40;93.77;101296.84;5029352;28;20029;-68
2023/10/09 00:47:35;;;;;;;1.70;0.80;;;;;;;14.36;94.63;101287.13;5014437;28;20029;-67
2023/10/09 00:53:01;;;;;;;;;;;;;;;14.28;95.35;101288.94;5028523;28;20545;-66
2023/10/09 00:55:44;;;;;;;1.15;0.47;;;;;;;14.29;94.71;101281.59;5030727;28;19920;-67
2023/10/09 00:58:14;;;;;;;1.73;0.50;;;;;;;14.17;95.14;101276.31;5031198;28;20044;-67
2023/10/09 01:03:19;;;;;;;0.88;0.52;;;;;;;14.19;95.17;101255.88;5024556;28;20056;-65
2023/10/09 01:05:52;;;;;;;5.30;0.93;;;;;;;14.17;95.94;101243.81;5029468;28;20567;-67
2023/10/09 01:08:30;;;;;;;0.40;0.40;;;;;;;14.19;95.65;101241.53;5012900;28;20068;-66
2023/10/09 01:10:56;;;;;;;0.75;0.43;;;;;;;14.23;95.79;101240.44;5031004;28;20076;-66
2023/10/09 01:13:39;;;;;;;0.98;0.68;;;;;;;14.25;95.75;101221.91;5027505;28;20029;-66
2023/10/09 01:16:16;;;;;;;0.30;0.30;;;;;;;14.21;95.85;101223.78;5029887;28;20076;-67
2023/10/09 01:18:49;;;;;;;0.68;0.50;;;;;;;14.23;94.82;101240.44;5029416;28;20048;-66
2023/10/09 01:21:14;;;;;;;0.65;0.63;;;;;;;14.23;94.99;101226.91;5030925;28;20192;-67
2023/10/09 01:23:58;;;;;;;0.50;0.47;;;;;;;14.12;94.72;101211.63;5025575;28;20490;-66
2023/10/09 01:26:25;;;;;;;1.20;0.65;;;;;;;13.74;95.15;101215.31;5029084;28;20087;-68
2023/10/09 01:28:50;;;;;;;0.80;0.60;;;;;;;13.87;95.35;101216.69;5023176;28;20022;-64
2023/10/09 01:31:16;;;;;;;0.70;0.70;;;;;;;13.92;95.70;101208.22;5024200;28;20129;-67
2023/10/09 01:33:41;;;;;;;0.40;0.40;;;;;;;14.07;95.71;101204.59;5027772;28;20033;-67
2023/10/09 01:36:09;;;;;;;0.75;0.50;;;;;;;14.01;94.54;101202.56;5029710;28;20029;-67
2023/10/09 01:38:43;;;;;;;1.30;0.60;;;;;;;14.09;94.65;101204.25;5028894;28;20040;-67
2023/10/09 01:41:15;;;;;;;0.80;0.50;;;;;;;14.01;94.80;101197.94;5010768;28;20095;-67
2023/10/09 01:43:44;;;;;;;4.18;0.88;;;;;;;13.97;94.66;101205.25;5028462;28;20030;-67
2023/10/09 01:46:17;;;;;;;1.80;0.60;;;;;;;14.00;95.24;101199.06;5025741;28;20689;-66
2023/10/09 01:48:46;;;;;;;1.23;0.60;;;;;;;14.04;94.17;101188.28;5029396;28;20034;-67
2023/10/09 01:51:18;;;;;;;4.05;0.80;;;;;;;14.05;94.64;101198.75;5038018;28;20060;-67
2023/10/09 01:53:47;;;;;;;1.35;0.55;;;;;;;13.87;93.80;101184.19;5027442;28;20084;-67
2023/10/09 01:56:15;;;;;;;14.65;1.00;;;;;;;13.82;95.18;101186.41;5026962;28;20072;-66
2023/10/09 01:58:46;;;;;;;0.73;0.47;;;;;;;13.85;94.54;101181.06;5030411;28;20036;-67
2023/10/09 02:01:12;;;;;;;0.77;0.63;;;;;;;13.90;95.17;101185.41;5027346;28;20025;-67
2023/10/09 02:03:38;;;;;;;2.30;0.65;;;;;;;13.85;94.90;101175.66;5028269;28;20034;-68
2023/10/09 02:06:05;;;;;;;0.88;0.65;;;;;;;13.88;94.79;101169.50;5024404;28;20033;-67
2023/10/09 02:08:35;;;;;;;0.75;0.68;;;;;;;13.94;95.44;101156.41;5027536;28;20045;-68
2023/10/09 02:11:02;;;;;;;2.03;0.70;;;;;;;13.95;95.11;101156.06;5029121;28;20045;-67
2023/10/09 02:13:34;;;;;;;1.02;0.73;;;;;;;13.94;94.89;101159.91;5022088;28;20647;-67
2023/10/09 02:16:14;;;;;;;0.90;0.77;;;;;;;13.86;95.19;101155.53;5008455;28;20145;-67
2023/10/09 02:18:41;;;;;;;1.25;0.40;;;;;;;13.95;94.73;101147.94;5027466;28;20049;-68
2023/10/09 02:26:39;;;;;;;1.50;0.80;;;;;;;14.04;94.23;101117.88;5026767;28;20465;-66
2023/10/09 02:29:14;;;;;;;0.77;0.60;;;;;;;13.93;94.54;101133.19;5027685;28;20231;-66
2023/10/09 02:31:41;;;;;;;4.05;0.65;;;;;;;13.87;95.12;101135.44;5026923;28;20029;-67
2023/10/09 02:34:15;;;;;;;0.82;0.50;;;;;;;13.94;94.34;101119.28;5025228;28;20155;-66
2023/10/09 02:36:49;;;;;;;0.52;0.30;;;;;;;13.99;93.90;101115.50;5026494;28;20402;-68
2023/10/09 02:39:25;;;;;;;2.35;0.60;;;;;;;14.04;93.66;101132.22;5026734;28;20505;-67
2023/10/09 02:42:01;;;;;;;1.35;0.40;;;;;;;14.05;93.32;101130.28;5026923;28;20580;-66
2023/10/09 02:44:34;;;;;;;1.02;0.55;;;;;;;14.08;92.98;101162.84;5022584;28;20067;-67
2023/10/09 02:47:05;;;;;;;1.42;0.50;;;;;;;13.97;92.31;101134.03;5025482;28;20033;-66
2023/10/09 02:49:34;;;;;;;2.72;0.75;;;;;;;13.83;93.32;101096.72;5012196;28;20167;-66
2023/10/09 02:52:00;;;;;;;3.38;0.50;;;;;;;13.86;93.35;101112.22;5025155;28;20072;-67
2023/10/09 02:54:35;;;;;;;1.63;0.77;;;;;;;13.94;93.18;101119.28;5024258;28;20536;-67
2023/10/09 02:57:08;;;;;;;0.40;0.40;;;;;;;13.92;93.13;101110.75;5027588;28;20029;-66
2023/10/09 02:59:37;;;;;;;1.30;0.63;;;;;;;13.72;93.19;101100.41;5026595;28;20094;-66
2023/10/09 03:02:02;;;;;;;2.47;0.70;;;;;;;13.79;93.36;101097.78;5007995;28;20030;-66
2023/10/09 03:04:30;;;;;;;1.73;0.63;;;;;;;13.89;93.23;101110.72;5026207;28;20041;-67
2023/10/09 03:06:57;;;;;;;0.82;0.43;;;;;;;13.75;93.75;101105.88;5027438;28;20022;-67
2023/10/09 03:09:29;;;;;;;1.67;0.90;;;;;;;13.86;93.38;101098.66;5028452;28;20084;-67
2023/10/09 03:12:02;;;;;;;2.25;0.90;;;;;;;13.91;92.80;101097.59;5030724;28;20121;-67
2023/10/09 03:14:30;;;;;;;5.22;0.73;;;;;;;13.71;92.63;101094.22;5026415;28;20172;-68
2023/10/09 03:16:57;;;;;;;2.20;0.52;;;;;;;13.46;94.61;101079.53;5029603;28;21057;-68
2023/10/09 03:19:25;;;;;;;0.98;0.82;;;;;;;13.65;93.80;101084.03;5029732;28;20037;-67
2023/10/09 03:21:50;;;;;;;0.73;0.70;;;;;;;13.56;94.06;101087.81;5025087;28;20052;-67
2023/10/09 03:24:16;;;;;;;1.17;0.70;;;;;;;13.55;95.03;101082.75;5025510;28;20077;-66
2023/10/09 03:26:44;;;;;;;0.63;0.45;;;;;;;13.69;94.83;101064.00;5029297;28;20045;-68
2023/10/09 03:29:10;;;;;;;2.63;1.10;;;;;;;13.67;93.58;101054.69;5029112;28;20063;-67
2023/10/09 03:31:36;;;;;;;1.98;0.70;;;;;;;13.61;94.10;101059.63;5029374;28;20093;-68
2023/10/09 03:34:06;;;;;;;1.23;0.52;;;;;;;13.70;94.17;101053.97;5032443;28;20410;-67
2023/10/09 03:36:37;;;;;;;3.13;0.85;;;;;;;13.66;93.69;101042.31;5032861;28;20036;-67
2023/10/09 03:39:07;;;;;;;0.98;0.55;;;;;;;13.68;93.57;101040.81;5030735;28;20033;-66
2023/10/09 03:41:41;;;;;;;0.63;0.50;;;;;;;13.80;92.97;101056.06;5031010;28;20034;-68
2023/10/09 03:44:07;;;;;;;1.30;0.47;;;;;;;13.81;93.12;101061.09;5030307;28;20044;-67
2023/10/09 03:46:33;;;;;;;0.88;0.47;;;;;;;13.85;92.72;101055.72;5031859;28;20025;-67
2023/10/09 03:49:00;;;;;;;1.80;0.43;;;;;;;13.70;93.36;101052.06;5031496;28;20482;-67
2023/10/09 03:51:29;;;;;;;0.30;0.30;;;;;;;13.78;93.13;101042.09;5030454;28;20040;-67
2023/10/09 03:53:55;;;;;;;1.90;0.70;;;;;;;13.73;93.36;101029.66;5030232;28;20064;-67
2023/10/09 03:56:21;;;;;;;1.42;0.60;;;;;;;13.68;93.50;101026.50;5029733;28;20037;-66
2023/10/09 03:58:49;;;;;;;0.95;0.70;;;;;;;13.63;93.43;101035.69;5031811;28;20509;-68
2023/10/09 04:01:58;;;;;;;1.02;0.60;;;;;;;13.61;94.35;101029.88;5027429;28;20669;-66
2023/10/09 04:04:07;;;;;;;1.95;0.93;;;;;;;13.66;93.18;101037.69;5024389;28;20045;-67
2023/10/09 04:06:33;;;;;;;1.67;0.80;;;;;;;13.72;93.27;101041.66;5031202;28;20041;-67
2023/10/09 04:14:54;;;;;;;1.55;0.73;;;;;;;13.62;93.29;101028.75;5033075;28;20558;-67
2023/10/09 04:17:33;;;;;;;0.60;0.50;;;;;;;13.61;93.86;101023.69;5029278;28;20407;-67
2023/10/09 04:22:50;;;;;;;2.65;0.40;;;;;;;13.69;93.67;101012.59;5031717;28;20049;-67
2023/10/09 04:25:29;;;;;;;1.30;0.70;;;;;;;13.49;94.11;101008.47;5027807;28;20033;-68
2023/10/09 04:30:58;;;;;;;0.57;0.50;;;;;;;13.56;93.84;101014.75;4968138;28;20046;-68
2023/10/09 04:38:55;;;;;;;0.55;0.50;;;;;;;13.47;93.32;101006.09;5031779;28;20498;-68
2023/10/09 04:41:32;;;;;;;0.85;0.45;;;;;;;13.52;93.19;100999.59;5030590;28;20510;-68
2023/10/09 04:44:16;;;;;;;0.77;0.60;;;;;;;13.55;93.11;100999.66;5045847;28;20382;-68
2023/10/09 04:46:44;;;;;;;0.95;0.50;;;;;;;13.53;93.05;101006.56;5027643;28;20055;-68
2023/10/09 04:49:34;;;;;;;1.15;0.50;;;;;;;13.33;92.30;101015.94;5030200;28;20025;-67
2023/10/09 04:52:07;;;;;;;2.33;0.50;;;;;;;13.44;93.10;100997.94;5030639;28;20108;-68
2023/10/09 04:55:04;;;;;;;0.85;0.68;;;;;;;13.50;92.63;100991.06;5027685;28;20055;-67
2023/10/09 04:57:27;;;;;;;1.02;0.50;;;;;;;13.43;92.55;101005.25;5034439;28;20604;-67
2023/10/09 04:59:58;;;;;;;3.83;0.70;;;;;;;13.45;92.42;101015.75;5029243;28;20668;-67
2023/10/09 05:02:24;;;;;;;0.40;0.35;;;;;;;13.46;92.34;101006.47;5020899;28;20038;-68
2023/10/09 05:05:15;;;;;;;0.65;0.50;;;;;;;13.39;92.04;101012.53;5023515;28;20037;-68
2023/10/09 05:10:24;;;;;;;1.60;0.45;;;;;;;13.33;92.38;101005.91;5021322;28;20037;-66
2023/10/09 05:12:56;;;;;;;0.80;0.47;;;;;;;13.40;92.87;101008.72;5026980;28;20029;-67
2023/10/09 05:15:29;;;;;;;1.60;0.52;;;;;;;13.52;91.82;101005.81;5023945;28;20288;-66
2023/10/09 05:17:56;;;;;;;0.55;0.40;;;;;;;13.50;91.78;101004.59;5022903;28;20114;-64
2023/10/09 05:22:58;;;;;;;0.40;0.30;;;;;;;13.48;91.55;100972.50;5027018;28;20037;-67
2023/10/09 05:31:06;;;;;;;0.90;0.50;;;;;;;12.99;92.44;100974.44;5026437;28;20041;-66
2023/10/09 05:33:33;;;;;;;1.98;0.60;;;;;;;13.07;92.15;100965.31;5025472;28;20043;-67
2023/10/09 05:38:48;;;;;;;0.70;0.60;;;;;;;13.27;91.82;100960.59;5029566;28;20452;-67
2023/10/09 05:41:46;;;;;;;1.48;0.45;;;;;;;13.33;92.32;100961.84;5028998;28;20448;-66
2023/10/09 05:49:54;;;;;;;0.73;0.40;;;;;;;13.21;92.35;100970.16;5019609;28;20053;-66
2023/10/09 05:52:32;;;;;;;1.20;0.43;;;;;;;13.21;92.42;100959.34;5023367;28;20036;-67
2023/10/09 06:09:10;;;;;;;0.20;0.20;;;;;;;12.92;92.80;100992.47;5025638;28;20090;-68
2023/10/09 06:16:41;;;;;;;1.08;0.50;;;;;;;13.04;93.60;100962.56;5030168;28;20025;-66
2023/10/09 06:19:42;;;;;;;0.32;0.30;;;;;;;13.05;94.46;100983.03;5027980;28;20037;-66
2023/10/09 06:24:41;;;;;;;0.40;0.30;;;;;;;13.07;93.77;100999.69;5026865;28;20029;-67
2023/10/09 06:27:14;;;;;;;1.35;0.52;;;;;;;12.96;93.69;100996.78;5027450;28;20038;-67
2023/10/09 06:34:57;;;;;;;1.48;0.40;;;;;;;12.91;95.04;100961.94;5031003;28;20521;-67
2023/10/09 06:42:33;;;;;;;1.10;0.60;;;;;;;12.77;95.09;100963.66;5030365;28;20057;-67
2023/10/09 06:45:13;;;;;;;1.58;0.70;;;;;;;12.83;95.93;100959.50;5028321;28;20079;-66
2023/10/09 06:47:41;;;;;;;1.08;0.50;;;;;;;12.90;95.98;100951.50;5028455;28;20416;-68
2023/10/09 06:52:58;;;;;;;2.17;0.90;;;;;;;12.75;96.40;100949.72;5029924;28;20030;-66
2023/10/09 06:58:15;;;;;;;1.38;0.60;;;;;;;12.89;96.19;100937.19;5029871;28;20878;-66
2023/10/09 07:03:32;;;;;;;1.10;0.80;;;;;;;12.87;96.61;100934.09;5027785;28;20499;-65
2023/10/09 07:06:47;;;;;;;1.02;0.70;;;;;;;12.98;96.35;100945.84;5027772;28;20091;-67
2023/10/09 07:24:58;;;;;;;1.25;0.50;;;;;;;12.94;97.89;100936.13;5028582;28;20118;-67
2023/10/09 07:33:16;;;;;;;1.25;0.82;;;;;;;12.91;98.10;100947.66;5025990;28;20025;-67
2023/10/09 07:35:54;;;;;;;3.63;0.95;;;;;;;12.91;98.39;100936.84;5032450;28;20046;-67
2023/10/09 07:38:28;;;;;;;3.00;0.75;;;;;;;12.79;98.42;100934.34;5037379;28;20492;-66
2023/10/09 07:40:55;;;;;;;1.17;0.65;;;;;;;12.86;99.30;100943.34;5030953;28;20044;-66
2023/10/09 07:44:18;;;;;;;1.40;1.13;;;;;;;12.83;98.46;100937.88;5032355;28;20072;-67
2023/10/09 07:46:32;;;;;;;1.15;0.85;;;;;;;12.65;100.00;100940.31;5026365;28;20053;-66
2023/10/09 07:49:12;;;;;;;1.13;0.68;;;;;;;12.91;99.50;100936.84;5031795;28;20079;-66
2023/10/09 07:51:43;;;;;;;1.58;0.77;;;;;;;12.84;99.34;100932.09;5030989;28;20148;-68
2023/10/09 07:54:08;;;;;;;;;;;;;;;12.90;99.75;100930.66;5032498;28;20124;-67
2023/10/09 07:56:45;;;;;;;1.42;0.60;;;;;;;12.98;99.73;100923.44;5027261;28;20498;-67
2023/10/09 07:59:12;;;;;;;2.03;0.88;;;;;;;12.96;100.00;100931.91;5028340;28;20041;-67
2023/10/09 08:01:52;;;;;;;2.35;1.30;;;;;;;12.92;99.69;100933.78;5012397;28;20080;-68
2023/10/09 08:04:37;;;;;;;1.10;0.70;;;;;;;13.07;99.49;100924.75;5027345;28;20111;-68
2023/10/09 08:07:19;;;;;;;5.47;1.20;;;;;;;12.69;100.00;100928.41;5030581;28;20037;-68
2023/10/09 08:09:47;;;;;;;0.70;0.70;;;;;;;12.61;100.00;100932.13;5028254;28;20025;-69
2023/10/09 08:18:03;;;;;;;1.02;0.57;;;;;;;13.11;100.00;100935.63;5019376;28;20096;-66
2023/10/09 08:23:23;;;;;;;0.90;0.63;;;;;;;13.02;100.00;100929.69;5028442;28;20056;-68
2023/10/09 08:26:10;;;;;;;1.70;0.88;;;;;;;13.05;100.00;100931.66;5028696;28;20052;-67
2023/10/09 08:28:39;;;;;;;2.08;1.40;;;;;;;13.09;100.00;100937.91;5026919;28;20029;-67
2023/10/09 08:31:18;;;;;;;2.00;1.13;;;;;;;12.87;100.00;100931.41;5030449;28;20018;-69
2023/10/09 08:33:44;;;;;;;1.25;0.90;;;;;;;12.69;100.00;100933.03;5029103;28;20037;-68
2023/10/09 08:36:14;;;;;;;2.35;0.68;;;;;;;12.91;100.00;100936.84;5030369;28;20520;-67
2023/10/09 08:38:42;;;;;;;1.83;1.10;;;;;;;12.89;100.00;100933.72;5031453;28;20041;-67
2023/10/09 08:41:21;;;;;;;3.20;1.25;;;;;;;12.99;100.00;100933.13;5028440;28;20528;-66
2023/10/09 08:43:53;;;;;;;1.50;0.98;;;;;;;13.06;100.00;100934.03;5029706;28;20037;-67
2023/10/09 08:46:29;;;;;;;1.50;1.00;;;;;;;13.05;100.00;100939.78;5025525;28;20037;-68
2023/10/09 08:48:58;;;;;;;2.90;1.23;;;;;;;13.04;100.00;100940.94;5027650;28;20037;-67
2023/10/09 08:51:25;;;;;;;2.65;1.30;;;;;;;12.83;100.00;100938.66;5029318;28;20021;-69
2023/10/09 08:53:52;;;;;;;1.98;1.10;;;;;;;12.84;100.00;100937.50;5031930;28;20464;-68
2023/10/09 08:56:22;;;;;;;1.33;0.95;;;;;;;13.05;100.00;100945.97;5027862;28;20051;-68
2023/10/09 08:58:57;;;;;;;2.30;1.05;;;;;;;13.25;100.00;100944.75;5028285;28;20083;-68
2023/10/09 09:01:24;;;;;;;2.05;1.08;;;;;;;13.28;100.00;100940.50;5024152;28;20069;-68
2023/10/09 09:03:51;;;;;;;1.83;1.00;;;;;;;13.15;100.00;100925.63;5028522;28;20056;-67
2023/10/09 09:06:20;;;;;;;1.60;1.10;;;;;;;13.32;100.00;100938.63;5031006;28;20437;-66
2023/10/09 09:08:46;;;;;;;1.80;1.00;;;;;;;12.97;100.00;100936.16;5027074;28;20036;-68
2023/10/09 09:11:22;;;;;;;1.38;1.00;;;;;;;13.05;100.00;100931.66;5026584;28;20037;-68
2023/10/09 09:14:18;;;;;;;1.67;1.13;;;;;;;13.03;100.00;100937.44;5028377;28;20064;-68
2023/10/09 09:16:48;;;;;;;1.65;1.13;;;;;;;13.11;100.00;100924.81;5029128;28;20025;-67
2023/10/09 09:19:20;;;;;;;1.23;0.95;;;;;;;13.32;100.00;100935.91;5028418;28;20037;-67
2023/10/09 09:21:54;;;;;;;1.85;1.00;;;;;;;13.34;100.00;100923.59;5030105;28;20048;-66
2023/10/09 09:26:58;;;;;;;1.40;1.00;;;;;;;13.31;100.00;100927.06;5025730;28;20395;-68
2023/10/09 09:29:37;;;;;;;1.15;1.00;;;;;;;13.24;100.00;100926.19;5032919;28;20033;-68
2023/10/09 09:32:22;;;;;;;2.58;1.10;;;;;;;13.43;100.00;100926.03;5030069;28;20083;-68
2023/10/09 09:34:49;;;;;;;1.52;1.10;;;;;;;13.56;100.00;100924.66;5044626;28;20097;-68
2023/10/09 09:37:21;;;;;;;2.22;0.88;;;;;;;13.47;100.00;100922.22;5026320;28;20025;-68
2023/10/09 09:39:49;;;;;;;1.75;0.85;;;;;;;13.66;100.00;100923.22;5030870;28;20048;-67
2023/10/09 09:42:24;;;;;;;1.58;1.00;;;;;;;13.37;100.00;100922.88;5026474;28;20474;-67
2023/10/09 09:44:51;;;;;;;2.40;1.20;;;;;;;13.49;100.00;100925.34;5027713;28;20547;-68
2023/10/09 09:47:25;;;;;;;3.67;1.10;;;;;;;13.47;100.00;100926.88;5030437;28;20045;-68
2023/10/09 09:49:59;;;;;;;1.33;1.00;;;;;;;13.36;100.00;100915.91;5024523;28;20474;-67
2023/10/09 09:52:40;;;;;;;0.95;0.85;;;;;;;13.53;100.00;100919.97;5025804;28;20087;-68
2023/10/09 09:55:22;;;;;;;1.73;0.90;;;;;;;13.44;100.00;100920.25;5029817;28;20059;-68
2023/10/09 09:57:51;;;;;;;1.52;1.05;;;;;;;13.57;100.00;100912.69;5030678;28;20049;-68
2023/10/09 10:00:42;;;;;;;1.40;0.90;;;;;;;13.74;100.00;100904.00;5028471;28;20439;-67
2023/10/09 10:03:12;;;;;;;5.32;0.93;;;;;;;13.92;100.00;100917.72;5030634;28;20107;-69
2023/10/09 10:05:42;;;;;;;0.95;0.82;;;;;;;13.99;100.00;100909.69;5031542;28;20030;-68
2023/10/09 10:08:13;;;;;;;1.80;0.93;;;;;;;14.03;100.00;100905.09;5030243;28;20033;-68
2023/10/09 10:11:04;;;;;;;1.17;0.93;;;;;;;14.05;100.00;100902.78;5024985;28;20589;-68
2023/10/09 10:13:42;;;;;;;1.38;0.85;;;;;;;14.09;100.00;100898.94;5028156;28;20401;-67
2023/10/09 10:18:59;;;;;;;1.52;0.77;;;;;;;14.03;100.00;100897.72;5030198;28;20037;-68
2023/10/09 10:24:09;;;;;;;0.95;0.70;;;;;;;14.00;100.00;100898.47;5029437;28;20117;-67
2023/10/09 10:26:38;;;;;;;1.60;1.00;;;;;;;14.01;100.00;100908.19;5029321;28;20124;-67
2023/10/09 10:29:23;;;;;;;0.90;0.80;;;;;;;14.17;100.00;100902.50;5028771;28;20030;-67
2023/10/09 10:32:08;;;;;;;0.70;0.70;;;;;;;14.22;100.00;100905.69;5022035;28;20051;-67
2023/10/09 10:34:55;;;;;;;0.90;0.52;;;;;;;14.32;100.00;100904.25;5029381;28;20052;-68
2023/10/09 10:37:28;;;;;;;1.50;0.75;;;;;;;14.35;100.00;100900.78;5023981;28;20107;-68
2023/10/09 10:39:59;;;;;;;0.65;0.45;;;;;;;14.36;100.00;100894.97;5027903;28;20402;-68
2023/10/09 10:42:34;;;;;;;1.77;0.73;;;;;;;14.40;100.00;100898.50;5028333;28;20087;-68
2023/10/09 10:45:02;;;;;;;1.15;0.70;;;;;;;14.27;100.00;100904.53;5029081;28;20076;-68
2023/10/09 10:47:34;;;;;;;0.85;0.68;;;;;;;14.41;100.00;100904.72;5029880;28;20501;-68
2023/10/09 10:52:57;;;;;;;1.77;0.90;;;;;;;14.34;100.00;100905.41;5031028;28;20102;-68
2023/10/09 10:57:56;;;;;;;1.35;0.68;;;;;;;14.20;100.00;100902.56;5028992;28;20029;-67
2023/10/09 11:03:13;;;;;;;1.45;0.80;;;;;;;14.41;100.00;100904.72;5028210;28;20056;-67
2023/10/09 11:05:42;;;;;;;0.90;0.70;;;;;;;14.50;100.00;100902.44;5028595;28;20439;-67
2023/10/09 11:08:11;;;;;;;0.88;0.70;;;;;;;14.48;100.00;100900.13;5026362;28;20022;-66
2023/10/09 11:10:49;;;;;;;0.93;0.50;;;;;;;14.47;100.00;100892.38;5029203;28;20386;-68
2023/10/09 11:13:30;;;;;;;0.55;0.52;;;;;;;14.56;100.00;100900.97;5023062;28;20048;-67
2023/10/09 11:16:14;;;;;;;0.73;0.52;;;;;;;14.55;100.00;100895.91;5043015;28;20048;-67
2023/10/09 11:18:46;;;;;;;0.85;0.40;;;;;;;14.37;100.00;100890.34;5011392;28;20076;-67
2023/10/09 11:24:27;;;;;;;1.50;0.63;;;;;;;14.45;100.00;100890.03;5021993;28;20116;-66
2023/10/09 11:26:31;;;;;;;1.05;0.47;;;;;;;14.56;100.00;100883.91;5015131;28;20091;-67
2023/10/09 11:29:14;;;;;;;0.65;0.55;;;;;;;14.61;100.00;100878.16;5012487;28;20034;-68
2023/10/09 11:32:01;;;;;;;0.43;0.40;;;;;;;14.28;100.00;100884.47;5028524;28;20075;-66
2023/10/09 11:34:37;;;;;;;1.05;0.50;;;;;;;14.13;100.00;100886.22;5036299;28;20030;-66
2023/10/09 11:37:11;;;;;;;0.85;0.47;;;;;;;14.35;100.00;100890.72;5028583;28;20060;-66
2023/10/09 11:39:50;;;;;;;0.40;0.40;;;;;;;14.53;100.00;100890.88;5017337;28;20034;-68
2023/10/09 11:42:35;;;;;;;0.52;0.30;;;;;;;14.56;100.00;100894.75;5027516;28;20116;-67
2023/10/09 11:45:19;;;;;;;0.35;0.35;;;;;;;14.51;100.00;100892.41;5039995;28;20491;-67
2023/10/09 11:47:56;;;;;;;0.65;0.32;;;;;;;14.55;100.00;100888.56;5023127;28;20447;-67
2023/10/09 11:50:43;;;;;;;0.47;0.35;;;;;;;14.61;100.00;100892.50;5030819;28;20044;-67
2023/10/09 11:55:49;;;;;;;0.60;0.30;;;;;;;14.41;100.00;100888.44;5024313;28;20564;-67
2023/10/09 11:58:24;;;;;;;0.20;0.20;;;;;;;14.53;100.00;100888.16;5024503;28;20034;-68
2023/10/09 12:01:03;;;;;;;0.35;0.30;;;;;;;14.54;100.00;100883.53;5028411;28;20029;-65
2023/10/09 12:03:29;;;;;;;0.40;0.25;;;;;;;14.44;100.00;100876.84;5023718;28;20063;-67
2023/10/09 12:06:13;;;;;;;0.30;0.30;;;;;;;14.42;100.00;100873.72;5028900;28;20034;-67
2023/10/09 12:08:42;;;;;;;0.47;0.30;;;;;;;14.53;100.00;100876.53;5025134;28;20029;-66
2023/10/09 12:11:09;;;;;;;0.50;0.50;;;;;;;14.71;100.00;100875.50;5027371;28;20030;-67
2023/10/09 12:13:37;;;;;;;0.43;0.30;;;;;;;14.76;100.00;100871.69;5024100;28;20029;-66
2023/10/09 12:16:07;;;;;;;0.30;0.30;;;;;;;14.78;100.00;100874.78;5025080;28;20108;-68
2023/10/09 12:18:34;;;;;;;0.30;0.30;;;;;;;14.80;100.00;100867.06;5032404;28;20113;-67
2023/10/09 12:21:04;;;;;;;0.50;0.50;;;;;;;14.86;100.00;100860.13;5032143;28;20124;-66
2023/10/09 12:23:35;;;;;;;0.65;0.28;;;;;;;14.97;100.00;100855.53;5033749;28;20048;-68
2023/10/09 12:26:02;;;;;;;0.55;0.25;;;;;;;15.08;100.00;100861.78;5028617;28;20401;-67
2023/10/09 12:28:28;;;;;;;0.50;0.30;;;;;;;14.67;100.00;100846.84;5027840;28;20033;-68
2023/10/09 12:30:53;;;;;;;0.15;0.15;;;;;;;14.76;100.00;100850.78;5031288;28;20061;-67
2023/10/09 12:33:27;;;;;;;0.30;0.30;;;;;;;15.01;100.00;100864.47;5030837;28;20083;-68
2023/10/09 12:35:59;;;;;;;0.20;0.20;;;;;;;14.93;100.00;100860.94;5029797;28;20048;-68
2023/10/09 12:38:31;;;;;;;0.28;0.28;;;;;;;15.12;100.00;100868.00;5028650;28;20065;-67
2023/10/09 12:43:48;;;;;;;0.43;0.32;;;;;;;15.13;100.00;100878.50;5045881;28;20029;-68
2023/10/09 12:46:16;;;;;;;0.40;0.30;;;;;;;14.96;100.00;100875.69;5023873;28;20472;-67
2023/10/09 12:48:47;;;;;;;0.30;0.30;;;;;;;14.81;100.00;100869.38;5026770;28;20505;-66
2023/10/09 12:51:18;;;;;;;;;;;;;;;14.87;100.00;100867.09;5026302;28;20043;-67
2023/10/09 12:53:45;;;;;;;0.40;0.40;;;;;;;14.85;100.00;100867.47;5024397;28;20365;-68
2023/10/09 12:56:15;;;;;;;0.60;0.60;;;;;;;14.82;100.00;100872.88;5026407;28;20083;-68
2023/10/09 12:58:52;;;;;;;0.90;0.55;;;;;;;14.92;100.00;100874.88;5026792;28;20037;-67
2023/10/09 13:01:20;;;;;;;0.55;0.47;;;;;;;14.86;100.00;100877.19;5020685;28;20134;-67
2023/10/09 13:03:49;;;;;;;0.25;0.25;;;;;;;14.93;100.00;100874.50;5021567;28;20065;-67
2023/10/09 13:06:23;;;;;;;0.88;0.60;;;;;;;15.06;100.00;100877.69;5026123;28;20452;-68
2023/10/09 13:08:49;;;;;;;0.40;0.40;;;;;;;15.12;100.00;100881.56;5027390;28;20033;-66
2023/10/09 13:11:18;;;;;;;1.67;0.50;;;;;;;15.20;100.00;100875.03;5026676;28;20079;-67
2023/10/09 13:13:47;;;;;;;0.93;0.77;;;;;;;15.21;100.00;100874.66;5029403;28;20029;-68
2023/10/09 13:16:24;;;;;;;1.08;0.60;;;;;;;15.14;100.00;100877.34;5030856;28;20124;-66
2023/10/09 13:18:54;;;;;;;0.70;0.40;;;;;;;15.23;100.00;100869.63;5032747;28;20029;-67
2023/10/09 13:21:23;;;;;;;0.68;0.43;;;;;;;15.28;100.00;100873.91;5038460;28;20029;-67
2023/10/09 13:24:05;;;;;;;1.30;0.30;;;;;;;15.36;100.00;100872.78;5028571;28;20660;-67
2023/10/09 13:26:32;;;;;;;1.00;0.47;;;;;;;15.44;100.00;100871.69;5027128;28;20544;-67
2023/10/09 13:29:01;;;;;;;0.40;0.40;;;;;;;15.47;100.00;100865.50;5024785;28;20033;-68
2023/10/09 13:31:27;;;;;;;0.45;0.30;;;;;;;15.32;100.00;100861.94;5022169;28;20049;-67
2023/10/09 13:33:58;;;;;;;0.93;0.47;;;;;;;15.40;100.00;100868.16;5023494;28;20053;-67
2023/10/09 13:36:28;;;;;;;;;;;;;;;15.38;100.00;100873.19;5026829;28;20480;-68
2023/10/09 13:38:57;;;;;;;0.43;0.25;;;;;;;15.30;100.00;100874.31;5027628;28;19920;-67
2023/10/09 13:41:29;;;;;;;0.30;0.30;;;;;;;15.48;100.00;100872.50;5026724;28;20098;-66
2023/10/09 13:43:56;;;;;;;0.55;0.47;;;;;;;15.35;100.00;100876.66;5025956;28;20099;-68
2023/10/09 13:46:23;;;;;;;0.30;0.30;;;;;;;15.31;100.00;100873.16;5026643;28;20077;-68
2023/10/09 13:48:49;;;;;;;0.10;0.10;;;;;;;15.39;100.00;100875.50;5025635;28;20041;-64
2023/10/09 13:51:17;;;;;;;0.73;0.40;;;;;;;15.49;100.00;100871.31;5030283;28;20092;-67
2023/10/09 13:53:47;;;;;;;0.98;0.80;;;;;;;15.58;100.00;100869.00;5029607;28;20521;-66
2023/10/09 13:56:18;;;;;;;0.50;0.45;;;;;;;15.58;100.00;100862.81;5027263;28;20044;-67
2023/10/09 13:58:45;;;;;;;0.38;0.30;;;;;;;15.65;100.00;100857.41;5027350;28;20092;-68
2023/10/09 14:01:10;;;;;;;0.20;0.20;;;;;;;15.72;100.00;100860.91;5023745;28;20474;-67
2023/10/09 14:03:38;;;;;;;0.57;0.40;;;;;;;15.75;100.00;100854.75;5017997;28;20040;-66
2023/10/09 14:06:12;;;;;;;0.40;0.40;;;;;;;15.77;100.00;100860.56;5025594;28;20049;-68
2023/10/09 14:08:42;;;;;;;0.50;0.40;;;;;;;15.74;100.00;100866.75;5024942;28;20413;-67
2023/10/09 14:11:13;;;;;;;0.60;0.40;;;;;;;15.79;100.00;100863.69;5022177;28;20034;-68
2023/10/09 14:13:42;;;;;;;;;;;;;;;15.82;100.00;100860.19;5025785;28;21346;-67